Accueil
METAR-TAF:

METAR-TAF

Aéroports :

Huslia, Alaska, États-Unis

latitude: 65-41-52N, longitude: 156-21-05W, altitude: 65 m

Observation

Le bulletin a été fait il y a 13 minutes, à 04:56 UTC
Vent 16 kt de est avec des rafales jusqu'à 25 kt
Température -10°C
Humidité 85%
Pression 993 hPa
Visibilité: 16.1 km
Nuages fragmentés à une hauteur de 6500 ft
Ciel couvert à une hauteur de 7500 ft

METAR: PAHL 080456Z AUTO 08016G25KT 10SM BKN065 OVC075 M10/M12 A2931 RMK AO2 PK WND 08026/0439 SNB32E50 SLP932 P0000 T11001117 FZRANO

Heure: 20:09 (05:09 UTC)


TAF: absent

Observations et prévisions météorologiques de plus de 4000 aéroports (messages METAR et TAF).

Les stations disponibles sont représentées par des disques jaunes et rouges sur la carte.

Passer la souris dessus pour voir le nom de la station.

Cliquer dessus pour voir les observations et prévisions météorologiques.

Pour changer de carte: cliquez sur les boutons verts avec une croix noire pour zoomer, sur le bouton vert avec un tiret pour effectuer un zoom arrière, ou sur les flèches vertes pour les cartes adjacentes.


METAR-TAF: